Time;durP1;ratioP1;P1;durP2;ratioP2;P2;SDS_P1;SDS_P2;PMS_P1;PMS_P2;Temp;Humidity;BMP_temperature;BMP_pressure;BME280_temperature;BME280_humidity;BME280_pressure;Samples;Min_cycle;Max_cycle;Signal;HPM_P1;HPM_P2
2023/03/13 00:00:58;;;;;;;123.95;65.90;;;0.30;1.00;;;;;;4911303;29;20062;-79
2023/03/13 00:03:27;;;;;;;115.68;64.18;;;0.30;99.90;;;;;;4913398;29;20056;-80
2023/03/13 00:05:58;;;;;;;114.28;61.15;;;0.30;99.90;;;;;;4896487;29;20104;-78
2023/03/13 00:08:29;;;;;;;114.95;62.35;;;0.30;1.00;;;;;;4911657;29;20051;-78
2023/03/13 00:10:57;;;;;;;132.18;72.22;;;0.30;1.00;;;;;;4895181;29;20552;-78
2023/03/13 00:13:26;;;;;;;148.35;79.10;;;0.20;1.00;;;;;;4896882;29;20056;-77
2023/03/13 00:16:00;;;;;;;156.30;83.35;;;0.30;1.00;;;;;;4913328;29;20044;-78
2023/03/13 00:18:28;;;;;;;150.18;79.00;;;0.20;58.30;;;;;;4895610;29;20151;-80
2023/03/13 00:20:59;;;;;;;142.10;75.65;;;0.30;1.00;;;;;;4917372;29;20104;-79
2023/03/13 00:23:26;;;;;;;139.70;73.95;;;0.30;1.00;;;;;;4922299;29;20040;-79
2023/03/13 00:25:57;;;;;;;140.27;72.97;;;0.20;1.00;;;;;;4913389;29;20489;-80
2023/03/13 00:28:29;;;;;;;134.82;76.00;;;0.20;1.00;;;;;;4902007;29;20048;-79
2023/03/13 00:31:02;;;;;;;137.60;71.97;;;0.20;1.00;;;;;;4927625;29;20058;-79
2023/03/13 00:33:29;;;;;;;138.10;75.22;;;0.20;99.90;;;;;;4899878;29;20139;-78
2023/03/13 00:35:59;;;;;;;136.05;73.72;;;0.20;92.60;;;;;;4899546;29;20525;-79
2023/03/13 00:38:28;;;;;;;119.55;64.47;;;0.20;99.90;;;;;;4895285;29;20087;-78
2023/03/13 00:41:03;;;;;;;118.00;64.60;;;0.30;99.90;;;;;;4896676;29;20159;-79
2023/03/13 00:43:33;;;;;;;126.75;70.10;;;0.30;1.00;;;;;;4895578;29;20094;-78
2023/03/13 00:46:01;;;;;;;126.85;66.80;;;0.30;1.00;;;;;;4895823;29;20386;-77
2023/03/13 00:48:29;;;;;;;127.80;68.75;;;0.30;99.90;;;;;;4912704;29;20064;-80
2023/03/13 00:50:56;;;;;;;120.13;62.67;;;0.20;1.00;;;;;;4904279;29;20557;-78
2023/03/13 00:53:24;;;;;;;97.35;51.85;;;0.20;1.00;;;;;;4895124;29;20116;-78
2023/03/13 00:55:53;;;;;;;91.78;50.60;;;0.20;1.00;;;;;;4912153;29;20442;-78
2023/03/13 00:58:21;;;;;;;81.25;43.38;;;0.10;1.00;;;;;;4912283;29;20048;-76
2023/03/13 01:00:50;;;;;;;67.40;36.92;;;0.10;1.00;;;;;;4894158;29;20047;-78
2023/03/13 01:03:18;;;;;;;93.40;49.17;;;0.10;1.00;;;;;;4895521;29;20104;-79
2023/03/13 01:05:45;;;;;;;101.47;56.72;;;0.10;99.90;;;;;;4911588;29;20072;-79
2023/03/13 01:08:13;;;;;;;108.25;59.30;;;0.00;1.00;;;;;;4880173;29;20057;-79
2023/03/13 01:10:40;;;;;;;118.75;63.92;;;-0.10;1.00;;;;;;4881995;29;20052;-77
2023/03/13 01:13:08;;;;;;;117.95;63.70;;;-0.10;1.00;;;;;;4880169;29;20052;-77
2023/03/13 01:15:36;;;;;;;105.20;57.67;;;-0.20;1.00;;;;;;4880102;29;20041;-79
2023/03/13 01:18:05;;;;;;;102.60;56.97;;;-0.20;99.90;;;;;;4880163;29;20561;-79
2023/03/13 01:20:33;;;;;;;81.07;47.35;;;-0.20;1.00;;;;;;4894630;29;20072;-77
2023/03/13 01:23:00;;;;;;;83.03;45.33;;;-0.20;1.00;;;;;;4881543;29;20048;-77
2023/03/13 01:25:28;;;;;;;85.88;44.83;;;-0.10;1.00;;;;;;4880285;29;20090;-77
2023/03/13 01:27:55;;;;;;;80.18;44.78;;;-0.10;99.90;;;;;;4880489;29;20049;-79
2023/03/13 01:30:23;;;;;;;80.38;44.80;;;-0.10;99.90;;;;;;4879915;29;20048;-78
2023/03/13 01:32:50;;;;;;;78.95;44.33;;;-0.10;99.90;;;;;;4880012;29;20045;-79
2023/03/13 01:35:20;;;;;;;84.60;45.80;;;-0.20;94.30;;;;;;4895312;29;20036;-77
2023/03/13 01:37:47;;;;;;;82.03;46.95;;;-0.10;99.90;;;;;;4896584;29;20549;-77
2023/03/13 01:40:15;;;;;;;99.32;52.63;;;-0.10;99.90;;;;;;4877391;29;20144;-76
2023/03/13 01:42:50;;;;;;;102.90;54.85;;;-0.10;1.00;;;;;;4879603;29;20048;-77
2023/03/13 01:45:53;;;;;;;104.78;55.70;;;-0.10;1.00;;;;;;4879636;29;20501;-78
2023/03/13 01:48:24;;;;;;;89.28;50.08;;;-0.10;99.90;;;;;;4879809;29;20175;-77
2023/03/13 01:50:54;;;;;;;99.30;55.58;;;-0.10;99.90;;;;;;4879714;29;20037;-77
2023/03/13 01:53:30;;;;;;;102.78;55.63;;;-0.10;1.00;;;;;;4896515;29;20040;-78
2023/03/13 01:56:00;;;;;;;110.82;59.65;;;-0.10;1.00;;;;;;4894746;29;20045;-77
2023/03/13 01:58:30;;;;;;;118.00;63.13;;;-0.10;1.00;;;;;;4879253;29;20084;-79
2023/03/13 02:00:59;;;;;;;111.10;60.58;;;-0.10;1.00;;;;;;4887684;29;20679;-79
2023/03/13 02:03:28;;;;;;;104.72;56.13;;;-0.10;1.00;;;;;;4897014;29;20048;-79
2023/03/13 02:06:00;;;;;;;100.82;54.20;;;-0.10;1.00;;;;;;4879374;29;20460;-77
2023/03/13 02:08:32;;;;;;;88.30;49.58;;;0.00;1.00;;;;;;4914968;29;20064;-77
2023/03/13 02:11:10;;;;;;;88.45;49.10;;;-0.10;99.90;;;;;;4912139;29;20131;-77
2023/03/13 02:13:38;;;;;;;93.80;51.30;;;-0.20;99.90;;;;;;4913501;29;20541;-78
2023/03/13 02:16:07;;;;;;;86.03;49.47;;;-0.20;1.00;;;;;;4912979;29;20073;-78
2023/03/13 02:18:37;;;;;;;94.97;51.13;;;-0.20;1.00;;;;;;4916735;29;20067;-79
2023/03/13 02:21:14;;;;;;;119.65;63.78;;;-0.20;1.00;;;;;;4919261;29;20170;-78
2023/03/13 02:23:50;;;;;;;82.57;45.85;;;-0.20;99.90;;;;;;4912101;29;20452;-78
2023/03/13 02:26:19;;;;;;;84.82;46.35;;;-0.20;99.90;;;;;;4928042;29;20627;-78
2023/03/13 02:28:47;;;;;;;61.10;33.17;;;-0.20;1.00;;;;;;4913329;29;20230;-77
2023/03/13 02:31:18;;;;;;;61.60;34.08;;;-0.10;1.00;;;;;;4913038;29;20055;-78
2023/03/13 02:33:46;;;;;;;57.08;32.72;;;-0.20;99.90;;;;;;4915825;29;20099;-77
2023/03/13 02:36:18;;;;;;;50.63;28.70;;;-0.20;99.90;;;;;;4912901;29;20059;-77
2023/03/13 02:38:55;;;;;;;53.78;28.75;;;-0.20;99.90;;;;;;4913431;29;20052;-80
2023/03/13 02:41:25;;;;;;;43.75;25.40;;;-0.20;99.90;;;;;;4919445;29;20044;-77
2023/03/13 02:43:55;;;;;;;53.20;29.02;;;-0.20;99.90;;;;;;4914011;29;20040;-77
2023/03/13 02:46:22;;;;;;;46.97;27.70;;;-0.20;99.90;;;;;;4915092;29;20048;-78
2023/03/13 02:48:55;;;;;;;45.97;25.85;;;-0.30;99.90;;;;;;4906726;29;20138;-78
2023/03/13 02:51:29;;;;;;;38.58;22.20;;;-0.30;99.90;;;;;;4912392;29;20049;-80
2023/03/13 02:54:01;;;;;;;49.55;28.13;;;-0.30;99.90;;;;;;4913396;29;20095;-79
2023/03/13 02:56:33;;;;;;;52.03;29.25;;;-0.40;99.90;;;;;;4917797;29;20512;-78
2023/03/13 02:59:02;;;;;;;58.55;34.30;;;-0.40;99.90;;;;;;4913859;29;20108;-77
2023/03/13 03:01:29;;;;;;;52.10;31.63;;;-0.40;1.00;;;;;;4905447;29;20048;-79
2023/03/13 03:03:57;;;;;;;53.35;31.05;;;-0.50;1.00;;;;;;4914799;29;20234;-79
2023/03/13 03:06:25;;;;;;;51.45;28.90;;;-0.40;99.90;;;;;;4915335;29;20056;-79
2023/03/13 03:08:53;;;;;;;51.20;27.52;;;-0.40;1.00;;;;;;4918578;29;20052;-79
2023/03/13 03:11:20;;;;;;;55.00;29.15;;;-0.30;99.90;;;;;;4916340;29;20049;-76
2023/03/13 03:13:55;;;;;;;46.47;27.40;;;-0.30;99.90;;;;;;4929417;29;20044;-78
2023/03/13 03:16:23;;;;;;;52.63;29.10;;;-0.20;1.00;;;;;;4930755;29;20071;-78
2023/03/13 03:18:50;;;;;;;54.25;30.95;;;-0.20;1.00;;;;;;4937911;29;20056;-78
2023/03/13 03:21:18;;;;;;;53.90;30.02;;;-0.10;99.90;;;;;;4932475;29;20111;-77
2023/03/13 03:23:45;;;;;;;48.97;27.55;;;-0.10;1.00;;;;;;4931708;29;20059;-79
2023/03/13 03:26:13;;;;;;;47.15;28.23;;;-0.10;1.00;;;;;;4925796;29;20371;-78
2023/03/13 03:28:40;;;;;;;49.78;29.08;;;-0.10;1.00;;;;;;4925215;29;20052;-78
2023/03/13 03:31:16;;;;;;;48.85;27.38;;;-0.20;1.00;;;;;;4926498;29;20076;-79
2023/03/13 03:33:45;;;;;;;46.83;24.88;;;-0.30;1.00;;;;;;4924978;29;20071;-77
2023/03/13 03:36:16;;;;;;;45.22;25.35;;;-0.30;1.00;;;;;;4924096;29;20133;-78
2023/03/13 03:38:45;;;;;;;45.95;24.10;;;-0.30;1.00;;;;;;4923402;29;20051;-78
2023/03/13 03:41:16;;;;;;;43.15;23.75;;;-0.30;1.00;;;;;;4923057;29;20055;-78
2023/03/13 03:43:44;;;;;;;49.17;28.33;;;-0.40;1.00;;;;;;4928925;29;20111;-79
2023/03/13 03:46:16;;;;;;;43.60;25.45;;;-0.50;99.90;;;;;;4929149;29;20558;-78
2023/03/13 03:48:43;;;;;;;46.35;27.05;;;-0.60;99.90;;;;;;4935611;29;20108;-78
2023/03/13 03:51:12;;;;;;;50.55;28.25;;;-0.70;99.90;;;;;;4909050;29;20068;-79
2023/03/13 03:53:42;;;;;;;49.03;26.92;;;-0.70;1.00;;;;;;4919158;29;20445;-78
2023/03/13 03:56:10;;;;;;;45.63;25.92;;;-0.60;99.90;;;;;;4915457;29;20485;-77
2023/03/13 03:58:43;;;;;;;44.53;25.92;;;-0.60;93.90;;;;;;4912383;29;20100;-78
2023/03/13 04:01:27;;;;;;;44.10;27.15;;;-0.50;1.00;;;;;;4912047;29;20059;-76
2023/03/13 04:03:55;;;;;;;49.05;27.92;;;-0.50;1.00;;;;;;4895639;29;20072;-78
2023/03/13 04:06:23;;;;;;;46.17;28.08;;;-0.50;1.00;;;;;;4911581;29;20052;-79
2023/03/13 04:08:51;;;;;;;42.45;23.77;;;-0.50;1.00;;;;;;4920412;29;20052;-77
2023/03/13 04:11:23;;;;;;;38.10;23.02;;;-0.50;1.00;;;;;;4912172;29;20629;-78
2023/03/13 04:13:54;;;;;;;50.58;28.60;;;-0.40;1.00;;;;;;4916813;29;20049;-77
2023/03/13 04:16:23;;;;;;;56.05;30.15;;;-0.50;1.00;;;;;;4920003;29;20049;-79
2023/03/13 04:18:52;;;;;;;46.72;27.83;;;-0.40;1.00;;;;;;4914936;29;20094;-79
2023/03/13 04:21:21;;;;;;;56.90;31.02;;;-0.40;99.90;;;;;;4911765;29;20068;-78
2023/03/13 04:23:56;;;;;;;45.08;27.25;;;-0.40;12.20;;;;;;4919162;29;20048;-78
2023/03/13 04:26:24;;;;;;;55.58;30.23;;;-0.50;99.90;;;;;;4911615;29;20437;-79
2023/03/13 04:28:54;;;;;;;46.38;26.67;;;-0.40;99.90;;;;;;4911434;29;20040;-80
2023/03/13 04:31:37;;;;;;;41.65;23.42;;;-0.50;99.90;;;;;;4911658;29;20485;-79
2023/03/13 04:34:26;;;;;;;41.13;24.55;;;-0.50;99.90;;;;;;4884288;29;20112;-79
2023/03/13 04:37:05;;;;;;;43.97;25.88;;;-0.40;99.90;;;;;;4911275;29;20048;-78
2023/03/13 04:39:43;;;;;;;43.75;25.33;;;-0.50;1.00;;;;;;4913143;29;20489;-78
2023/03/13 04:42:37;;;;;;;44.28;25.85;;;-0.60;99.90;;;;;;4912727;29;20070;-78
2023/03/13 04:45:26;;;;;;;46.83;25.13;;;-0.60;99.90;;;;;;4906244;29;20124;-77
2023/03/13 04:48:17;;;;;;;43.00;24.80;;;-0.70;99.90;;;;;;4907207;29;20044;-77
2023/03/13 04:51:03;;;;;;;46.38;26.73;;;-0.80;99.90;;;;;;4913983;29;20132;-79
2023/03/13 04:53:51;;;;;;;45.50;26.00;;;-0.80;99.90;;;;;;4915434;29;20504;-77
2023/03/13 04:56:50;;;;;;;46.88;25.90;;;-0.80;1.00;;;;;;4903606;29;20114;-79
2023/03/13 04:59:44;;;;;;;43.50;23.63;;;-0.70;99.90;;;;;;4914273;29;20048;-78
2023/03/13 05:02:23;;;;;;;40.42;22.52;;;-0.70;99.90;;;;;;4915663;29;20048;-78
2023/03/13 05:05:14;;;;;;;53.90;30.95;;;-0.70;99.90;;;;;;4906870;29;20052;-78
2023/03/13 05:07:58;;;;;;;50.05;27.85;;;-0.60;99.90;;;;;;4896090;29;20072;-78
2023/03/13 05:10:42;;;;;;;50.45;31.48;;;-0.50;1.00;;;;;;4897782;29;20049;-78
2023/03/13 05:13:27;;;;;;;52.90;31.90;;;-0.40;1.00;;;;;;4881106;29;20068;-79
2023/03/13 05:15:59;;;;;;;58.72;32.22;;;-0.40;1.00;;;;;;4880907;29;20049;-77
2023/03/13 05:18:45;;;;;;;54.05;31.83;;;-0.40;1.00;;;;;;4897563;29;20075;-77
2023/03/13 05:21:28;;;;;;;61.97;35.50;;;-0.30;79.30;;;;;;4897461;29;20566;-78
2023/03/13 05:24:08;;;;;;;68.32;40.03;;;-0.30;1.00;;;;;;4880059;29;20049;-78
2023/03/13 05:26:46;;;;;;;63.83;38.83;;;-0.30;99.90;;;;;;4880105;29;20056;-79
2023/03/13 05:29:27;;;;;;;65.53;38.30;;;-0.20;1.00;;;;;;4879759;29;20048;-79
2023/03/13 05:32:10;;;;;;;69.28;39.92;;;-0.20;1.00;;;;;;4897638;29;20051;-79
2023/03/13 05:35:03;;;;;;;64.47;38.25;;;-0.10;1.00;;;;;;4881466;29;20563;-78
2023/03/13 05:37:47;;;;;;;62.97;36.53;;;0.00;1.00;;;;;;4880591;29;20084;-79
2023/03/13 05:40:32;;;;;;;81.25;47.83;;;0.10;99.90;;;;;;4879913;29;20097;-77
2023/03/13 05:43:26;;;;;;;83.78;47.10;;;0.20;1.00;;;;;;4872918;29;20088;-77
2023/03/13 05:46:23;;;;;;;86.10;48.50;;;0.30;1.00;;;;;;4871761;29;20045;-79
2023/03/13 05:49:02;;;;;;;93.80;52.03;;;0.30;1.00;;;;;;4893446;29;20048;-79
2023/03/13 05:51:45;;;;;;;130.65;71.43;;;0.40;1.00;;;;;;4878651;29;20052;-78
2023/03/13 05:54:45;;;;;;;124.78;68.03;;;0.50;99.90;;;;;;4857745;29;21186;-78
2023/03/13 05:57:14;;;;;;;112.13;59.30;;;0.60;99.90;;;;;;4896057;29;20052;-79
2023/03/13 05:59:54;;;;;;;116.95;62.40;;;0.70;99.90;;;;;;4885144;29;20053;-78
2023/03/13 06:02:42;;;;;;;95.85;49.38;;;0.80;8.60;;;;;;4896807;29;20048;-79
2023/03/13 06:05:13;;;;;;;124.72;59.78;;;1.00;1.00;;;;;;4878960;29;20059;-79
2023/03/13 06:07:41;;;;;;;136.15;66.43;;;1.20;1.00;;;;;;4894789;29;20589;-79
2023/03/13 06:10:11;;;;;;;108.00;57.05;;;1.50;1.00;;;;;;4879725;29;20044;-79
2023/03/13 06:12:40;;;;;;;115.88;61.08;;;1.60;1.00;;;;;;4879560;29;20048;-78
2023/03/13 06:15:12;;;;;;;111.20;60.67;;;1.80;1.00;;;;;;4879495;29;20234;-79
2023/03/13 06:17:52;;;;;;;105.30;54.03;;;2.00;99.90;;;;;;4879074;29;20399;-77
2023/03/13 06:20:20;;;;;;;103.63;54.90;;;2.20;99.90;;;;;;4895776;29;20097;-78
2023/03/13 06:22:47;;;;;;;106.35;57.95;;;2.30;99.90;;;;;;4896776;29;20105;-79
2023/03/13 06:25:15;;;;;;;99.60;54.88;;;2.40;99.90;;;;;;4896543;29;20068;-77
2023/03/13 06:27:44;;;;;;;98.40;53.58;;;2.50;99.90;;;;;;4879698;29;20481;-78
2023/03/13 06:30:12;;;;;;;109.43;57.05;;;2.60;50.60;;;;;;4879285;29;20044;-80
2023/03/13 06:32:39;;;;;;;106.75;57.67;;;2.70;16.60;;;;;;4896310;29;20465;-79
2023/03/13 06:35:07;;;;;;;111.25;59.35;;;2.80;1.00;;;;;;4896356;29;20143;-77
2023/03/13 06:37:35;;;;;;;113.22;58.65;;;2.90;1.00;;;;;;4897129;29;20512;-78
2023/03/13 06:40:05;;;;;;;110.72;58.63;;;3.00;1.00;;;;;;4896374;29;20525;-77
2023/03/13 06:42:33;;;;;;;111.15;58.65;;;3.10;1.00;;;;;;4896920;29;20044;-77
2023/03/13 06:45:03;;;;;;;111.85;57.38;;;3.40;1.00;;;;;;4880404;29;20104;-77
2023/03/13 06:47:31;;;;;;;103.90;55.88;;;3.70;1.00;;;;;;4879677;29;20527;-77
2023/03/13 06:49:59;;;;;;;100.28;54.45;;;4.00;1.00;;;;;;4902602;29;20037;-79
2023/03/13 06:52:26;;;;;;;98.68;53.28;;;4.10;1.00;;;;;;4899104;29;20044;-79
2023/03/13 06:54:54;;;;;;;93.75;52.22;;;4.20;1.00;;;;;;4884589;29;20478;-79
2023/03/13 06:57:21;;;;;;;103.22;55.13;;;4.30;1.00;;;;;;4884967;29;20054;-77
2023/03/13 06:59:49;;;;;;;94.72;51.25;;;4.50;1.00;;;;;;4908171;29;20059;-77
2023/03/13 07:02:18;;;;;;;87.85;48.78;;;4.60;1.00;;;;;;4907179;29;20071;-78
2023/03/13 07:04:45;;;;;;;90.15;49.80;;;4.80;1.00;;;;;;4886833;29;20054;-77
2023/03/13 07:07:13;;;;;;;80.45;47.70;;;4.90;1.00;;;;;;4883144;29;20136;-76
2023/03/13 07:09:40;;;;;;;81.93;47.28;;;5.00;1.00;;;;;;4904940;29;20622;-77
2023/03/13 07:12:08;;;;;;;78.43;45.15;;;5.20;1.00;;;;;;4901053;29;20045;-76
2023/03/13 07:14:36;;;;;;;84.72;44.55;;;5.40;1.00;;;;;;4891037;29;20055;-78
2023/03/13 07:17:03;;;;;;;73.57;44.50;;;5.50;1.00;;;;;;4880693;29;20438;-76
2023/03/13 07:19:32;;;;;;;80.38;46.38;;;5.80;1.00;;;;;;4895644;29;20163;-76
2023/03/13 07:21:59;;;;;;;70.45;41.88;;;6.00;1.00;;;;;;4877002;29;20080;-77
2023/03/13 07:24:27;;;;;;;69.53;40.05;;;6.20;1.00;;;;;;4895367;29;20055;-76
2023/03/13 07:26:54;;;;;;;71.75;41.95;;;6.40;1.00;;;;;;4894791;29;20044;-78
2023/03/13 07:29:22;;;;;;;70.97;39.42;;;6.50;1.00;;;;;;4894900;29;20044;-78
2023/03/13 07:31:49;;;;;;;66.53;39.65;;;6.60;1.00;;;;;;4894400;29;20044;-78
2023/03/13 07:34:17;;;;;;;59.58;35.40;;;6.60;1.00;;;;;;4895583;29;20116;-78
2023/03/13 07:36:46;;;;;;;57.55;34.47;;;6.60;1.00;;;;;;4902319;29;20512;-76
2023/03/13 07:39:13;;;;;;;58.38;33.60;;;6.60;1.00;;;;;;4898672;29;20412;-77
2023/03/13 07:41:41;;;;;;;53.15;33.47;;;6.60;1.00;;;;;;4894287;29;20052;-75
2023/03/13 07:44:08;;;;;;;60.20;35.67;;;6.50;1.00;;;;;;4894111;29;20068;-77
2023/03/13 07:46:36;;;;;;;59.95;35.15;;;6.50;1.00;;;;;;4877524;29;20053;-77
2023/03/13 07:49:03;;;;;;;66.03;37.63;;;6.70;1.00;;;;;;4894812;29;20143;-77
2023/03/13 07:51:30;;;;;;;78.43;44.92;;;6.90;1.00;;;;;;4893962;29;20044;-77
2023/03/13 07:53:59;;;;;;;65.47;40.22;;;7.10;1.00;;;;;;4877378;29;20055;-77
2023/03/13 07:56:27;;;;;;;59.70;36.40;;;7.30;1.00;;;;;;4894795;29;20051;-75
2023/03/13 07:58:54;;;;;;;64.00;36.83;;;7.60;1.00;;;;;;4894428;29;20164;-76
2023/03/13 08:01:24;;;;;;;52.05;32.13;;;7.80;1.00;;;;;;4893495;29;20093;-77
2023/03/13 08:03:51;;;;;;;59.08;33.88;;;7.90;1.00;;;;;;4877584;29;20049;-77
2023/03/13 08:06:22;;;;;;;63.17;33.05;;;8.20;1.00;;;;;;4877881;29;20068;-77
2023/03/13 08:08:50;;;;;;;48.10;29.85;;;8.10;1.00;;;;;;4914752;29;20099;-78
2023/03/13 08:11:20;;;;;;;49.67;30.10;;;8.10;1.00;;;;;;4917539;29;20093;-78
2023/03/13 08:13:48;;;;;;;50.10;29.83;;;8.30;1.00;;;;;;4918212;29;20115;-76
2023/03/13 08:16:18;;;;;;;46.20;28.73;;;8.30;1.00;;;;;;4913457;29;20048;-76
2023/03/13 08:18:48;;;;;;;42.42;25.55;;;8.50;1.00;;;;;;4913057;29;20056;-77
2023/03/13 08:21:17;;;;;;;43.25;25.48;;;8.70;1.00;;;;;;4895858;29;20123;-77
2023/03/13 08:23:45;;;;;;;39.13;22.27;;;8.90;1.00;;;;;;4916806;29;20047;-79
2023/03/13 08:26:14;;;;;;;38.20;21.70;;;9.20;1.00;;;;;;4899746;29;20511;-77
2023/03/13 08:28:44;;;;;;;42.05;23.05;;;9.50;1.00;;;;;;4917024;29;20067;-76
2023/03/13 08:31:13;;;;;;;38.47;21.85;;;9.70;1.00;;;;;;4915465;29;20051;-77
2023/03/13 08:33:43;;;;;;;40.08;24.00;;;9.80;1.00;;;;;;4917228;29;20056;-78
2023/03/13 08:36:16;;;;;;;37.63;22.08;;;9.90;1.00;;;;;;4918176;29;20047;-77
2023/03/13 08:38:44;;;;;;;43.45;25.38;;;10.10;1.00;;;;;;4922023;29;20040;-77
2023/03/13 08:41:12;;;;;;;42.05;24.55;;;10.20;1.00;;;;;;4918632;29;20083;-75
2023/03/13 08:43:39;;;;;;;42.63;24.33;;;10.40;1.00;;;;;;4901037;29;20048;-77
2023/03/13 08:46:08;;;;;;;41.10;25.95;;;10.50;1.00;;;;;;4916001;29;20040;-77
2023/03/13 08:48:36;;;;;;;48.60;27.38;;;10.60;1.00;;;;;;4916886;29;20048;-76
2023/03/13 08:51:05;;;;;;;49.03;29.23;;;10.70;1.00;;;;;;4916092;29;20042;-75
2023/03/13 08:53:33;;;;;;;46.88;28.83;;;10.80;1.00;;;;;;4916842;29;20040;-77
2023/03/13 08:56:01;;;;;;;46.40;29.40;;;10.90;1.00;;;;;;4916358;29;20079;-78
2023/03/13 08:58:28;;;;;;;49.67;30.50;;;11.00;1.00;;;;;;4900315;29;20048;-77
2023/03/13 09:01:03;;;;;;;49.67;29.45;;;11.10;1.00;;;;;;4917652;29;20056;-83
2023/03/13 09:03:33;;;;;;;44.58;28.92;;;11.20;1.00;;;;;;4917499;29;20058;-82
2023/03/13 09:06:01;;;;;;;48.53;27.98;;;11.30;1.00;;;;;;4916634;29;20640;-82
2023/03/13 09:08:30;;;;;;;44.03;25.92;;;11.40;99.90;;;;;;4915637;29;20547;-81
2023/03/13 09:10:58;;;;;;;66.45;42.83;;;11.50;99.90;;;;;;4898916;29;20049;-81
2023/03/13 09:13:27;;;;;;;39.25;24.05;;;11.50;99.90;;;;;;4907002;29;20044;-79
2023/03/13 09:15:55;;;;;;;40.55;23.40;;;11.60;99.90;;;;;;4899096;29;20104;-80
2023/03/13 09:18:23;;;;;;;32.80;19.05;;;11.60;99.90;;;;;;4900533;29;20519;-81
2023/03/13 09:20:53;;;;;;;29.15;18.90;;;11.70;99.90;;;;;;4900223;29;20060;-80
2023/03/13 09:23:21;;;;;;;35.75;20.55;;;11.80;99.90;;;;;;4921865;29;20080;-75
2023/03/13 09:25:48;;;;;;;42.53;21.30;;;11.90;99.90;;;;;;4902178;29;20048;-76
2023/03/13 09:28:16;;;;;;;25.65;14.70;;;12.10;99.90;;;;;;4918698;29;20052;-76
2023/03/13 09:30:43;;;;;;;27.35;17.17;;;12.10;99.90;;;;;;4898626;29;20050;-76
2023/03/13 09:33:11;;;;;;;30.75;16.13;;;12.30;99.90;;;;;;4898128;29;20051;-75
2023/03/13 09:35:39;;;;;;;24.58;15.13;;;12.40;99.90;;;;;;4915068;29;20131;-77
2023/03/13 09:38:08;;;;;;;21.75;12.80;;;12.50;99.90;;;;;;4915855;29;20072;-77
2023/03/13 09:40:41;;;;;;;22.65;12.05;;;12.70;99.90;;;;;;4915121;29;20544;-77
2023/03/13 09:43:25;;;;;;;20.88;12.07;;;12.70;99.90;;;;;;4916218;29;20044;-76
2023/03/13 09:45:56;;;;;;;21.83;12.80;;;12.80;99.90;;;;;;4915507;29;20050;-76
2023/03/13 09:48:31;;;;;;;22.13;12.50;;;12.80;99.90;;;;;;4889722;29;20143;-77
2023/03/13 09:51:06;;;;;;;19.73;11.90;;;12.90;99.90;;;;;;4916335;29;20457;-77
2023/03/13 09:53:41;;;;;;;21.02;14.57;;;13.00;99.90;;;;;;4915595;29;20492;-77
2023/03/13 09:56:16;;;;;;;21.77;13.15;;;13.10;99.90;;;;;;4916221;29;20044;-77
2023/03/13 09:58:50;;;;;;;17.88;11.98;;;13.20;99.90;;;;;;4915460;29;20129;-78
2023/03/13 10:01:24;;;;;;;19.88;11.30;;;13.30;99.90;;;;;;4897965;29;20036;-77
2023/03/13 10:04:04;;;;;;;19.40;11.85;;;13.40;99.90;;;;;;4915805;29;20063;-77
2023/03/13 10:06:37;;;;;;;18.20;11.77;;;13.40;99.90;;;;;;4916491;29;20075;-77
2023/03/13 10:09:20;;;;;;;15.63;9.77;;;13.50;99.90;;;;;;4919483;29;20068;-76
2023/03/13 10:11:53;;;;;;;20.27;12.15;;;13.70;99.90;;;;;;4899454;29;20048;-75
2023/03/13 10:14:27;;;;;;;18.13;11.73;;;13.80;99.90;;;;;;4915587;29;20040;-76
2023/03/13 10:16:58;;;;;;;20.02;13.07;;;13.90;99.90;;;;;;4914796;29;20477;-76
2023/03/13 10:19:31;;;;;;;19.65;13.25;;;14.10;99.90;;;;;;4914509;29;20040;-77
2023/03/13 10:22:02;;;;;;;16.85;10.15;;;14.20;99.90;;;;;;4915291;29;20051;-75
2023/03/13 10:24:37;;;;;;;12.07;8.02;;;14.30;99.90;;;;;;4915199;29;20051;-77
2023/03/13 10:27:05;;;;;;;11.15;7.38;;;14.30;99.90;;;;;;4898547;29;20072;-76
2023/03/13 10:29:32;;;;;;;12.70;7.15;;;14.30;99.90;;;;;;4913658;29;20139;-77
2023/03/13 10:32:01;;;;;;;11.27;7.32;;;14.40;99.90;;;;;;4915364;29;20040;-77
2023/03/13 10:34:30;;;;;;;11.35;7.18;;;14.50;99.90;;;;;;4915025;29;20489;-75
2023/03/13 10:36:59;;;;;;;13.93;8.77;;;14.70;99.90;;;;;;4916081;29;20052;-75
2023/03/13 10:39:29;;;;;;;12.80;6.47;;;14.80;99.90;;;;;;4915058;29;20065;-77
2023/03/13 10:42:10;;;;;;;9.48;5.32;;;14.80;99.90;;;;;;4915106;29;20308;-77
2023/03/13 10:44:38;;;;;;;8.40;5.43;;;14.90;1.00;;;;;;4915065;29;20100;-77
2023/03/13 10:47:06;;;;;;;8.68;5.53;;;14.90;99.90;;;;;;4914593;29;20055;-77
2023/03/13 10:49:46;;;;;;;9.85;5.90;;;14.90;99.90;;;;;;4916469;29;20523;-75
2023/03/13 10:52:30;;;;;;;12.55;6.47;;;15.00;99.90;;;;;;4918728;29;20041;-76
2023/03/13 10:55:01;;;;;;;9.00;5.82;;;15.20;99.90;;;;;;4919142;29;20046;-76
2023/03/13 10:57:34;;;;;;;7.22;3.72;;;15.20;99.90;;;;;;4917841;29;20048;-75
2023/03/13 11:00:22;;;;;;;6.80;3.35;;;15.30;99.90;;;;;;4914642;29;20077;-76
2023/03/13 11:02:50;;;;;;;6.63;3.95;;;15.30;99.90;;;;;;4914794;29;20080;-75
2023/03/13 11:05:31;;;;;;;6.97;3.28;;;15.40;99.90;;;;;;4898525;29;20044;-75
2023/03/13 11:08:07;;;;;;;10.43;3.55;;;15.60;99.90;;;;;;4913734;29;20064;-77
2023/03/13 11:10:36;;;;;;;;;;;15.70;99.90;;;;;;4915078;29;20051;-77
2023/03/13 11:13:06;;;;;;;10.18;4.43;;;15.80;99.90;;;;;;4913357;29;20002;-77
2023/03/13 11:15:39;;;;;;;6.65;3.47;;;15.90;99.90;;;;;;4914274;29;20052;-76
2023/03/13 11:18:15;;;;;;;5.03;2.03;;;16.00;99.90;;;;;;4923148;29;20043;-75
2023/03/13 11:20:45;;;;;;;3.33;1.80;;;16.00;99.90;;;;;;4918217;29;20063;-78
2023/03/13 11:23:20;;;;;;;4.72;2.47;;;16.00;99.90;;;;;;4914042;29;20130;-75
2023/03/13 11:25:59;;;;;;;3.97;2.15;;;15.90;99.90;;;;;;4914781;29;20044;-77
2023/03/13 11:28:45;;;;;;;5.78;2.30;;;15.90;99.90;;;;;;4913269;29;20108;-77
2023/03/13 11:31:15;;;;;;;4.47;1.83;;;16.00;99.90;;;;;;4913373;29;20064;-76
2023/03/13 11:33:56;;;;;;;4.07;2.42;;;16.00;99.90;;;;;;4897029;29;20047;-76
2023/03/13 11:36:28;;;;;;;2.92;1.33;;;16.00;99.90;;;;;;4913920;29;20063;-75
2023/03/13 11:39:05;;;;;;;4.68;2.40;;;16.10;99.90;;;;;;4913628;29;20044;-78
2023/03/13 11:41:49;;;;;;;6.05;3.75;;;16.10;99.90;;;;;;4913022;29;20123;-75
2023/03/13 11:44:37;;;;;;;8.05;5.03;;;16.10;99.90;;;;;;4912769;29;20060;-77
2023/03/13 11:47:24;;;;;;;4.45;2.50;;;16.30;99.90;;;;;;4913026;29;20048;-76
2023/03/13 11:50:15;;;;;;;6.32;4.30;;;16.30;99.90;;;;;;4904013;29;20052;-76
2023/03/13 11:53:02;;;;;;;20.88;13.27;;;16.30;99.90;;;;;;4913534;29;20382;-76
2023/03/13 11:55:41;;;;;;;4.68;2.70;;;16.40;99.90;;;;;;4913270;29;20736;-74
2023/03/13 11:58:32;;;;;;;5.53;3.50;;;16.50;99.90;;;;;;4897433;29;20451;-76
2023/03/13 12:01:05;;;;;;;5.00;2.78;;;16.60;99.90;;;;;;4913909;29;20119;-76
2023/03/13 12:03:39;;;;;;;6.00;1.92;;;16.70;99.90;;;;;;4911610;29;20063;-75
2023/03/13 12:06:12;;;;;;;5.05;2.72;;;16.70;99.90;;;;;;4925891;29;20040;-75
2023/03/13 12:08:43;;;;;;;5.43;2.90;;;16.80;99.90;;;;;;4912711;29;20052;-78
2023/03/13 12:11:17;;;;;;;8.50;4.90;;;16.80;99.90;;;;;;4895762;29;20074;-74
2023/03/13 12:13:49;;;;;;;4.35;2.47;;;16.80;99.90;;;;;;4913324;29;20040;-75
2023/03/13 12:16:23;;;;;;;8.88;5.43;;;16.90;99.90;;;;;;4913438;29;20152;-75
2023/03/13 12:18:53;;;;;;;12.43;7.82;;;17.00;99.90;;;;;;4912385;29;20036;-77
2023/03/13 12:21:26;;;;;;;43.83;32.22;;;17.00;99.90;;;;;;4896551;29;20045;-77
2023/03/13 12:24:00;;;;;;;11.60;8.27;;;17.10;99.90;;;;;;4913643;29;20168;-76
2023/03/13 12:26:35;;;;;;;5.20;2.97;;;17.10;99.90;;;;;;4896104;29;20044;-76
2023/03/13 12:29:10;;;;;;;12.25;7.63;;;17.10;99.90;;;;;;4911932;29;20047;-76
2023/03/13 12:31:44;;;;;;;9.07;4.27;;;17.20;99.90;;;;;;4913078;29;20063;-75
2023/03/13 12:34:18;;;;;;;11.93;8.23;;;17.20;99.90;;;;;;4912531;29;20036;-76
2023/03/13 12:36:51;;;;;;;9.13;4.88;;;17.20;99.90;;;;;;4912920;29;20127;-75
2023/03/13 12:39:28;;;;;;;9.50;6.50;;;17.20;99.90;;;;;;4913912;29;20048;-76
2023/03/13 12:42:09;;;;;;;7.13;4.00;;;17.30;99.90;;;;;;4913891;29;20036;-78
2023/03/13 12:44:36;;;;;;;5.95;2.97;;;17.30;99.90;;;;;;4901992;29;20492;-75
2023/03/13 12:47:10;;;;;;;7.68;3.50;;;17.40;99.90;;;;;;4913668;29;20044;-77
2023/03/13 12:50:08;;;;;;;6.82;2.80;;;17.40;99.90;;;;;;4896809;29;20060;-78
2023/03/13 12:53:04;;;;;;;7.38;4.25;;;17.40;99.90;;;;;;4898415;29;20672;-76
2023/03/13 12:56:05;;;;;;;6.80;4.03;;;17.50;99.90;;;;;;4924126;29;20127;-82
2023/03/13 12:58:45;;;;;;;9.43;3.97;;;17.50;99.90;;;;;;4863717;29;20586;-78
2023/03/13 13:01:21;;;;;;;6.00;3.38;;;17.50;99.90;;;;;;4895747;29;20107;-78
2023/03/13 13:03:56;;;;;;;6.07;3.20;;;17.50;99.90;;;;;;4913842;29;20552;-80